Terminal Aerodrome Forecast
Issued by NWS Mt. Holly, NJ

Home | Current Version | Previous Version | Text Only | Print | Product List | Glossary On
Versions: 1 2 3 4 5 6 7 8 9 10 11 12 13 14 15
948
FTUS41 KPHI 211733
TAFRDG
TAF
KRDG 211733Z 2118/2218 26006KT P6SM SCT050
     FM220100 VRB03KT P6SM SCT100
     FM220700 VRB03KT 3SM BR SCT100
     FM221300 VRB03KT P6SM SCT100
     FM221600 27004KT P6SM SCT050=

USA.gov is the U.S. government's official web portal to all federal, state and local government web resources and services.